AIC816 VABB-VIDP
Flight info
| Callsign | AIC816 |
|---|---|
| Flight time | 1h 34m |
| Altitude | 39000 |
| Route | ANOLI2A ISRIS Q1 UKASO UKASO7G |
| Aircraft | B77W/H-SDE1E2E3FGHIJ2J3J4J5M1RWXY/LB1D1 |
Departure
| Time | 2026-05-08 01:08 |
|---|---|
| Airport | Chhatrapati Shivaji Maharaj International Airport (VABB) |
Arrival
| Time | 2026-05-08 02:43 |
|---|---|
| Airport | Indira Gandhi International Airport (VIDP) |
| Time | Latitude | Longitude | Altitude | Speed | Heading |
|---|---|---|---|---|---|
| 2026-05-08 00:22 | 19.09338 | 72.87279 | 45 ft | 0 kts | 309° |
| 2026-05-08 00:56 | 19.09335 | 72.87284 | 44 ft | 2 kts | 309° |
| 2026-05-08 00:56 | 19.09325 | 72.87296 | 43 ft | 2 kts | 308° |
| 2026-05-08 00:56 | 19.09318 | 72.87305 | 43 ft | 0 kts | 308° |
| 2026-05-08 00:56 | 19.09311 | 72.87317 | 43 ft | 2 kts | 289° |
| 2026-05-08 00:57 | 19.09308 | 72.87332 | 43 ft | 2 kts | 263° |
| 2026-05-08 00:57 | 19.09312 | 72.87347 | 43 ft | 2 kts | 240° |
| 2026-05-08 00:57 | 19.09321 | 72.87360 | 44 ft | 2 kts | 217° |
| 2026-05-08 00:57 | 19.09334 | 72.87367 | 45 ft | 1 kts | 195° |
| 2026-05-08 00:58 | 19.09331 | 72.87366 | 45 ft | 2 kts | 196° |
| 2026-05-08 00:58 | 19.09304 | 72.87364 | 43 ft | 2 kts | 168° |
| 2026-05-08 00:58 | 19.09288 | 72.87368 | 42 ft | 1 kts | 185° |
| 2026-05-08 00:58 | 19.09285 | 72.87368 | 42 ft | 0 kts | 186° |
| 2026-05-08 01:01 | 19.09275 | 72.87367 | 42 ft | 3 kts | 187° |
| 2026-05-08 01:01 | 19.09251 | 72.87354 | 41 ft | 3 kts | 234° |
| 2026-05-08 01:01 | 19.09239 | 72.87320 | 40 ft | 5 kts | 258° |
| 2026-05-08 01:01 | 19.09224 | 72.87279 | 40 ft | 6 kts | 223° |
| 2026-05-08 01:02 | 19.09172 | 72.87263 | 36 ft | 10 kts | 184° |
| 2026-05-08 01:02 | 19.09138 | 72.87262 | 35 ft | 3 kts | 180° |
| 2026-05-08 01:02 | 19.09104 | 72.87263 | 34 ft | 6 kts | 174° |
| 2026-05-08 01:02 | 19.09065 | 72.87284 | 33 ft | 6 kts | 128° |
| 2026-05-08 01:03 | 19.09050 | 72.87334 | 33 ft | 7 kts | 93° |
| 2026-05-08 01:03 | 19.09052 | 72.87389 | 33 ft | 7 kts | 88° |
| 2026-05-08 01:03 | 19.09054 | 72.87441 | 34 ft | 6 kts | 88° |
| 2026-05-08 01:03 | 19.09056 | 72.87492 | 34 ft | 6 kts | 89° |
| 2026-05-08 01:04 | 19.09055 | 72.87547 | 34 ft | 8 kts | 90° |
| 2026-05-08 01:04 | 19.09055 | 72.87610 | 35 ft | 8 kts | 90° |
| 2026-05-08 01:04 | 19.09055 | 72.87675 | 36 ft | 8 kts | 90° |
| 2026-05-08 01:04 | 19.09056 | 72.87740 | 37 ft | 9 kts | 89° |
| 2026-05-08 01:05 | 19.09057 | 72.87809 | 38 ft | 9 kts | 88° |
| 2026-05-08 01:05 | 19.09059 | 72.87882 | 39 ft | 9 kts | 89° |
| 2026-05-08 01:05 | 19.09060 | 72.87948 | 42 ft | 8 kts | 90° |
| 2026-05-08 01:05 | 19.09060 | 72.88007 | 43 ft | 7 kts | 92° |
| 2026-05-08 01:06 | 19.09042 | 72.88040 | 44 ft | 3 kts | 152° |
| 2026-05-08 01:06 | 19.09020 | 72.88047 | 44 ft | 4 kts | 167° |
| 2026-05-08 01:06 | 19.08983 | 72.88052 | 45 ft | 6 kts | 179° |
| 2026-05-08 01:06 | 19.08930 | 72.88053 | 44 ft | 7 kts | 178° |
| 2026-05-08 01:07 | 19.08897 | 72.88039 | 44 ft | 4 kts | 240° |
| 2026-05-08 01:07 | 19.08889 | 72.87998 | 44 ft | 7 kts | 266° |
| 2026-05-08 01:07 | 19.08887 | 72.87914 | 42 ft | 19 kts | 269° |
| 2026-05-08 01:07 | 19.08882 | 72.87505 | 33 ft | 95 kts | 269° |
| 2026-05-08 01:08 | 19.08868 | 72.86533 | 38 ft | 163 kts | 269° |
| 2026-05-08 01:08 | 19.08851 | 72.85188 | 338 ft | 195 kts | 271° |
| 2026-05-08 01:08 | 19.08855 | 72.83733 | 1126 ft | 206 kts | 271° |
| 2026-05-08 01:08 | 19.08853 | 72.82315 | 2123 ft | 194 kts | 272° |
| 2026-05-08 01:09 | 19.08864 | 72.80859 | 2667 ft | 207 kts | 274° |
| 2026-05-08 01:09 | 19.08859 | 72.79312 | 3281 ft | 216 kts | 273° |
| 2026-05-08 01:09 | 19.08822 | 72.77724 | 3978 ft | 221 kts | 272° |
| 2026-05-08 01:09 | 19.08762 | 72.76056 | 4536 ft | 235 kts | 271° |
| 2026-05-08 01:10 | 19.08681 | 72.74303 | 5276 ft | 241 kts | 271° |
| 2026-05-08 01:10 | 19.08895 | 72.72522 | 5742 ft | 253 kts | 293° |
| 2026-05-08 01:10 | 19.09855 | 72.70922 | 6153 ft | 267 kts | 319° |
| 2026-05-08 01:10 | 19.11444 | 72.69949 | 6757 ft | 273 kts | 346° |
| 2026-05-08 01:11 | 19.13345 | 72.69879 | 7507 ft | 275 kts | 13° |
| 2026-05-08 01:11 | 19.15060 | 72.70747 | 8186 ft | 280 kts | 39° |
| 2026-05-08 01:11 | 19.16528 | 72.72083 | 9014 ft | 281 kts | 43° |
| 2026-05-08 01:11 | 19.18040 | 72.73428 | 9642 ft | 287 kts | 34° |
| 2026-05-08 01:12 | 19.19934 | 72.74228 | 10117 ft | 301 kts | 13° |
| 2026-05-08 01:12 | 19.22078 | 72.74397 | 10537 ft | 321 kts | 1° |
| 2026-05-08 01:12 | 19.24394 | 72.74288 | 11015 ft | 339 kts | 358° |
| 2026-05-08 01:12 | 19.26781 | 72.74139 | 11543 ft | 355 kts | 358° |
| 2026-05-08 01:13 | 19.29332 | 72.74002 | 12095 ft | 370 kts | 1° |
| 2026-05-08 01:13 | 19.31956 | 72.74208 | 12655 ft | 385 kts | 9° |
| 2026-05-08 01:13 | 19.34656 | 72.74616 | 13235 ft | 400 kts | 10° |
| 2026-05-08 01:13 | 19.37424 | 72.75045 | 14019 ft | 409 kts | 9° |
| 2026-05-08 01:14 | 19.40059 | 72.75452 | 14959 ft | 413 kts | 9° |
| 2026-05-08 01:14 | 19.42912 | 72.75893 | 16057 ft | 414 kts | 9° |
| 2026-05-08 01:14 | 19.45756 | 72.76331 | 17101 ft | 416 kts | 8° |
| 2026-05-08 01:14 | 19.48616 | 72.76772 | 17992 ft | 421 kts | 8° |
| 2026-05-08 01:15 | 19.51525 | 72.77220 | 18869 ft | 424 kts | 8° |
| 2026-05-08 01:15 | 19.54438 | 72.77668 | 19723 ft | 427 kts | 7° |
| 2026-05-08 01:15 | 19.57398 | 72.78123 | 20531 ft | 431 kts | 7° |
| 2026-05-08 01:15 | 19.60377 | 72.78583 | 21307 ft | 433 kts | 7° |
| 2026-05-08 01:16 | 19.63358 | 72.79041 | 22033 ft | 436 kts | 6° |
| 2026-05-08 01:16 | 19.66369 | 72.79505 | 22743 ft | 441 kts | 6° |
| 2026-05-08 01:16 | 19.69440 | 72.79977 | 23391 ft | 447 kts | 6° |
| 2026-05-08 01:16 | 19.72524 | 72.80453 | 24055 ft | 453 kts | 6° |
| 2026-05-08 01:17 | 19.75666 | 72.80937 | 24733 ft | 458 kts | 6° |
| 2026-05-08 01:17 | 19.78855 | 72.81428 | 25397 ft | 464 kts | 6° |
| 2026-05-08 01:17 | 19.82074 | 72.81925 | 26076 ft | 469 kts | 6° |
| 2026-05-08 01:17 | 19.85300 | 72.82423 | 26747 ft | 474 kts | 6° |
| 2026-05-08 01:18 | 19.88594 | 72.82932 | 27397 ft | 480 kts | 6° |
| 2026-05-08 01:18 | 19.91925 | 72.83446 | 28036 ft | 485 kts | 6° |
| 2026-05-08 01:18 | 19.95289 | 72.83967 | 28661 ft | 491 kts | 5° |
| 2026-05-08 01:18 | 19.98658 | 72.84487 | 29268 ft | 496 kts | 6° |
| 2026-05-08 01:19 | 20.02088 | 72.85018 | 30017 ft | 497 kts | 6° |
| 2026-05-08 01:19 | 20.05525 | 72.85551 | 30914 ft | 494 kts | 6° |
| 2026-05-08 01:19 | 20.08911 | 72.86076 | 31823 ft | 490 kts | 5° |
| 2026-05-08 01:19 | 20.12297 | 72.86533 | 32689 ft | 487 kts | 4° |
| 2026-05-08 01:20 | 20.15679 | 72.86958 | 33523 ft | 486 kts | 4° |
| 2026-05-08 01:20 | 20.19009 | 72.87375 | 34305 ft | 485 kts | 4° |
| 2026-05-08 01:20 | 20.22345 | 72.87795 | 35077 ft | 484 kts | 4° |
| 2026-05-08 01:20 | 20.25688 | 72.88219 | 35818 ft | 483 kts | 4° |
| 2026-05-08 01:21 | 20.29074 | 72.88649 | 36461 ft | 484 kts | 4° |
| 2026-05-08 01:21 | 20.32474 | 72.89081 | 37005 ft | 485 kts | 4° |
| 2026-05-08 01:21 | 20.35928 | 72.89522 | 37515 ft | 486 kts | 4° |
| 2026-05-08 01:21 | 20.39267 | 72.89948 | 38054 ft | 486 kts | 4° |
| 2026-05-08 01:22 | 20.42684 | 72.90385 | 38642 ft | 485 kts | 4° |
| 2026-05-08 01:22 | 20.46048 | 72.90816 | 38830 ft | 488 kts | 4° |
| 2026-05-08 01:22 | 20.49441 | 72.91251 | 38832 ft | 485 kts | 4° |
| 2026-05-08 01:23 | 20.56098 | 72.92105 | 38834 ft | 484 kts | 4° |
| 2026-05-08 01:23 | 20.62834 | 72.92970 | 38834 ft | 483 kts | 4° |
| 2026-05-08 01:24 | 20.69504 | 72.93828 | 38834 ft | 485 kts | 4° |
| 2026-05-08 01:24 | 20.76205 | 72.94691 | 38832 ft | 483 kts | 4° |
| 2026-05-08 01:25 | 20.82907 | 72.95026 | 38827 ft | 481 kts | 358° |
| 2026-05-08 01:25 | 20.89599 | 72.95210 | 38829 ft | 481 kts | 358° |
| 2026-05-08 01:26 | 20.96326 | 72.95423 | 38828 ft | 480 kts | 358° |
| 2026-05-08 01:26 | 21.02995 | 72.95650 | 38825 ft | 480 kts | 358° |
| 2026-05-08 01:27 | 21.09679 | 72.95885 | 38827 ft | 481 kts | 358° |
| 2026-05-08 01:27 | 21.16447 | 72.96191 | 38815 ft | 484 kts | 3° |
| 2026-05-08 01:28 | 21.23036 | 72.97967 | 38837 ft | 490 kts | 16° |
| 2026-05-08 01:28 | 21.29463 | 73.00440 | 38837 ft | 489 kts | 16° |
| 2026-05-08 01:29 | 21.35849 | 73.02907 | 38833 ft | 490 kts | 16° |
| 2026-05-08 01:29 | 21.42255 | 73.05383 | 38838 ft | 489 kts | 16° |
| 2026-05-08 01:30 | 21.48696 | 73.07872 | 38835 ft | 489 kts | 16° |
| 2026-05-08 01:30 | 21.55087 | 73.10345 | 38829 ft | 489 kts | 16° |
| 2026-05-08 01:31 | 21.61513 | 73.12833 | 38840 ft | 489 kts | 16° |
| 2026-05-08 01:31 | 21.67908 | 73.15311 | 38840 ft | 489 kts | 16° |
| 2026-05-08 01:32 | 21.74319 | 73.17797 | 38838 ft | 489 kts | 16° |
| 2026-05-08 01:32 | 21.80737 | 73.20289 | 38837 ft | 490 kts | 16° |
| 2026-05-08 01:33 | 21.87132 | 73.22774 | 38830 ft | 489 kts | 16° |
| 2026-05-08 01:33 | 21.93551 | 73.25271 | 38833 ft | 489 kts | 16° |
| 2026-05-08 01:34 | 21.99949 | 73.27762 | 38830 ft | 488 kts | 16° |
| 2026-05-08 01:34 | 22.06321 | 73.30245 | 38834 ft | 489 kts | 16° |
| 2026-05-08 01:35 | 22.12737 | 73.32748 | 38839 ft | 488 kts | 15° |
| 2026-05-08 01:35 | 22.19166 | 73.35259 | 38839 ft | 488 kts | 15° |
| 2026-05-08 01:36 | 22.25553 | 73.37754 | 38843 ft | 489 kts | 15° |
| 2026-05-08 01:36 | 22.31966 | 73.40263 | 38851 ft | 488 kts | 15° |
| 2026-05-08 01:37 | 22.38332 | 73.42756 | 38863 ft | 489 kts | 15° |
| 2026-05-08 01:37 | 22.44731 | 73.45265 | 38884 ft | 486 kts | 15° |
| 2026-05-08 01:38 | 22.51137 | 73.47778 | 38915 ft | 488 kts | 15° |
| 2026-05-08 01:38 | 22.57522 | 73.50285 | 38911 ft | 488 kts | 15° |
| 2026-05-08 01:39 | 22.63901 | 73.52794 | 38883 ft | 487 kts | 15° |
| 2026-05-08 01:39 | 22.70298 | 73.55311 | 38862 ft | 488 kts | 15° |
| 2026-05-08 01:40 | 22.76729 | 73.57845 | 38841 ft | 488 kts | 15° |
| 2026-05-08 01:40 | 22.83091 | 73.60354 | 38839 ft | 486 kts | 15° |
| 2026-05-08 01:41 | 22.89466 | 73.62869 | 38834 ft | 488 kts | 15° |
| 2026-05-08 01:41 | 22.95842 | 73.65389 | 38833 ft | 488 kts | 15° |
| 2026-05-08 01:42 | 23.02237 | 73.67918 | 38821 ft | 486 kts | 15° |
| 2026-05-08 01:42 | 23.08598 | 73.70435 | 38822 ft | 488 kts | 15° |
| 2026-05-08 01:43 | 23.15005 | 73.72974 | 38824 ft | 486 kts | 15° |
| 2026-05-08 01:43 | 23.21381 | 73.75504 | 38824 ft | 485 kts | 15° |
| 2026-05-08 01:44 | 23.27738 | 73.78027 | 38830 ft | 487 kts | 15° |
| 2026-05-08 01:44 | 23.34107 | 73.80560 | 38832 ft | 484 kts | 15° |
| 2026-05-08 01:45 | 23.40455 | 73.83085 | 38839 ft | 486 kts | 15° |
| 2026-05-08 01:45 | 23.46822 | 73.85622 | 38839 ft | 483 kts | 15° |
| 2026-05-08 01:46 | 23.53118 | 73.88131 | 38832 ft | 485 kts | 15° |
| 2026-05-08 01:46 | 23.59456 | 73.90668 | 38835 ft | 482 kts | 15° |
| 2026-05-08 01:47 | 23.65794 | 73.93198 | 38838 ft | 485 kts | 15° |
| 2026-05-08 01:47 | 23.72107 | 73.95721 | 38835 ft | 482 kts | 15° |
| 2026-05-08 01:48 | 23.81570 | 73.99509 | 38849 ft | 483 kts | 14° |
| 2026-05-08 01:48 | 23.87890 | 74.02043 | 38848 ft | 481 kts | 15° |
| 2026-05-08 01:49 | 23.94185 | 74.04570 | 38850 ft | 480 kts | 14° |
| 2026-05-08 01:49 | 24.00475 | 74.07096 | 38852 ft | 482 kts | 15° |
| 2026-05-08 01:50 | 24.06804 | 74.09639 | 38857 ft | 480 kts | 14° |
| 2026-05-08 01:50 | 24.13080 | 74.12156 | 38874 ft | 480 kts | 14° |
| 2026-05-08 01:51 | 24.19346 | 74.14673 | 38887 ft | 481 kts | 14° |
| 2026-05-08 01:51 | 24.25616 | 74.17198 | 38901 ft | 479 kts | 14° |
| 2026-05-08 01:52 | 24.31900 | 74.19736 | 38906 ft | 480 kts | 14° |
| 2026-05-08 01:52 | 24.38200 | 74.22282 | 38913 ft | 480 kts | 14° |
| 2026-05-08 01:53 | 24.44460 | 74.24818 | 38917 ft | 477 kts | 14° |
| 2026-05-08 01:53 | 24.50701 | 74.27345 | 38919 ft | 479 kts | 14° |
| 2026-05-08 01:54 | 24.56959 | 74.29883 | 38916 ft | 480 kts | 14° |
| 2026-05-08 01:54 | 24.63204 | 74.32419 | 38911 ft | 478 kts | 14° |
| 2026-05-08 01:55 | 24.69469 | 74.34965 | 38920 ft | 479 kts | 14° |
| 2026-05-08 01:55 | 24.75723 | 74.37509 | 38920 ft | 478 kts | 14° |
| 2026-05-08 01:56 | 24.81922 | 74.40035 | 38919 ft | 477 kts | 14° |
| 2026-05-08 01:56 | 24.88180 | 74.42586 | 38925 ft | 478 kts | 14° |
| 2026-05-08 01:57 | 24.94383 | 74.45118 | 38921 ft | 476 kts | 14° |
| 2026-05-08 01:57 | 25.00586 | 74.47652 | 38920 ft | 476 kts | 14° |
| 2026-05-08 01:58 | 25.06840 | 74.50211 | 38921 ft | 475 kts | 14° |
| 2026-05-08 01:58 | 25.13031 | 74.52745 | 38929 ft | 477 kts | 13° |
| 2026-05-08 01:59 | 25.19264 | 74.55307 | 38926 ft | 474 kts | 13° |
| 2026-05-08 01:59 | 25.25468 | 74.57861 | 38926 ft | 477 kts | 14° |
| 2026-05-08 02:00 | 25.31636 | 74.60406 | 38926 ft | 475 kts | 13° |
| 2026-05-08 02:00 | 25.37840 | 74.62966 | 38923 ft | 474 kts | 13° |
| 2026-05-08 02:01 | 25.43999 | 74.65512 | 38915 ft | 473 kts | 14° |
| 2026-05-08 02:01 | 25.50208 | 74.68079 | 38908 ft | 473 kts | 14° |
| 2026-05-08 02:02 | 25.56377 | 74.70634 | 38907 ft | 473 kts | 14° |
| 2026-05-08 02:02 | 25.62565 | 74.73199 | 38906 ft | 473 kts | 13° |
| 2026-05-08 02:03 | 25.68720 | 74.75754 | 38902 ft | 471 kts | 13° |
| 2026-05-08 02:03 | 25.74851 | 74.78300 | 38903 ft | 474 kts | 14° |
| 2026-05-08 02:04 | 25.81043 | 74.80876 | 38897 ft | 471 kts | 13° |
| 2026-05-08 02:04 | 25.87177 | 74.83430 | 38898 ft | 473 kts | 13° |
| 2026-05-08 02:05 | 25.93311 | 74.85988 | 38895 ft | 468 kts | 13° |
| 2026-05-08 02:05 | 25.99436 | 74.88542 | 38895 ft | 472 kts | 13° |
| 2026-05-08 02:06 | 26.05555 | 74.91099 | 38896 ft | 470 kts | 13° |
| 2026-05-08 02:06 | 26.11705 | 74.93671 | 38894 ft | 469 kts | 13° |
| 2026-05-08 02:07 | 26.17809 | 74.96228 | 38882 ft | 468 kts | 13° |
| 2026-05-08 02:07 | 26.23939 | 74.98788 | 38885 ft | 469 kts | 13° |
| 2026-05-08 02:08 | 26.30025 | 75.01331 | 38882 ft | 468 kts | 13° |
| 2026-05-08 02:08 | 26.36145 | 75.03891 | 38892 ft | 469 kts | 13° |
| 2026-05-08 02:09 | 26.42265 | 75.06455 | 38899 ft | 469 kts | 13° |
| 2026-05-08 02:09 | 26.48353 | 75.09006 | 38900 ft | 467 kts | 13° |
| 2026-05-08 02:10 | 26.54465 | 75.11562 | 38901 ft | 470 kts | 13° |
| 2026-05-08 02:10 | 26.60577 | 75.14125 | 38908 ft | 469 kts | 13° |
| 2026-05-08 02:11 | 26.66675 | 75.16683 | 38904 ft | 467 kts | 13° |
| 2026-05-08 02:11 | 26.72771 | 75.19244 | 38904 ft | 467 kts | 13° |
| 2026-05-08 02:12 | 26.78861 | 75.21802 | 38903 ft | 469 kts | 13° |
| 2026-05-08 02:12 | 26.84990 | 75.24382 | 38904 ft | 467 kts | 13° |
| 2026-05-08 02:13 | 26.91067 | 75.26941 | 38902 ft | 469 kts | 13° |
| 2026-05-08 02:13 | 26.97165 | 75.29514 | 38904 ft | 466 kts | 13° |
| 2026-05-08 02:14 | 27.03258 | 75.32086 | 38906 ft | 469 kts | 13° |
| 2026-05-08 02:14 | 27.09311 | 75.34646 | 38912 ft | 468 kts | 13° |
| 2026-05-08 02:15 | 27.15413 | 75.37228 | 38883 ft | 464 kts | 13° |
| 2026-05-08 02:15 | 27.18435 | 75.38543 | 38222 ft | 464 kts | 16° |
| 2026-05-08 02:15 | 27.21309 | 75.40237 | 37348 ft | 476 kts | 24° |
| 2026-05-08 02:16 | 27.24012 | 75.42481 | 36570 ft | 488 kts | 33° |
| 2026-05-08 02:16 | 27.26493 | 75.45107 | 35788 ft | 493 kts | 36° |
| 2026-05-08 02:16 | 27.28943 | 75.47814 | 34957 ft | 496 kts | 37° |
| 2026-05-08 02:16 | 27.31380 | 75.50515 | 34073 ft | 499 kts | 37° |
| 2026-05-08 02:17 | 27.33861 | 75.53261 | 33168 ft | 502 kts | 37° |
| 2026-05-08 02:17 | 27.36359 | 75.56027 | 32286 ft | 504 kts | 37° |
| 2026-05-08 02:17 | 27.38853 | 75.58787 | 31398 ft | 508 kts | 38° |
| 2026-05-08 02:17 | 27.41375 | 75.61578 | 30523 ft | 510 kts | 38° |
| 2026-05-08 02:18 | 27.43885 | 75.64361 | 29961 ft | 505 kts | 38° |
| 2026-05-08 02:18 | 27.46361 | 75.67107 | 29403 ft | 500 kts | 39° |
| 2026-05-08 02:18 | 27.48833 | 75.69850 | 28781 ft | 496 kts | 39° |
| 2026-05-08 02:18 | 27.51271 | 75.72555 | 28160 ft | 492 kts | 40° |
| 2026-05-08 02:19 | 27.53678 | 75.75227 | 27541 ft | 487 kts | 40° |
| 2026-05-08 02:19 | 27.56100 | 75.77916 | 26915 ft | 483 kts | 40° |
| 2026-05-08 02:19 | 27.58461 | 75.80539 | 26312 ft | 478 kts | 40° |
| 2026-05-08 02:19 | 27.60830 | 75.83118 | 25679 ft | 472 kts | 37° |
| 2026-05-08 02:20 | 27.63407 | 75.85297 | 25064 ft | 462 kts | 28° |
| 2026-05-08 02:20 | 27.66223 | 75.86963 | 24438 ft | 452 kts | 20° |
| 2026-05-08 02:20 | 27.69160 | 75.88130 | 23782 ft | 446 kts | 15° |
| 2026-05-08 02:20 | 27.72122 | 75.89164 | 23089 ft | 437 kts | 14° |
| 2026-05-08 02:21 | 27.74973 | 75.90144 | 22465 ft | 426 kts | 14° |
| 2026-05-08 02:21 | 27.77775 | 75.91103 | 21859 ft | 416 kts | 14° |
| 2026-05-08 02:21 | 27.80510 | 75.92036 | 21264 ft | 406 kts | 14° |
| 2026-05-08 02:21 | 27.83177 | 75.92943 | 20677 ft | 397 kts | 14° |
| 2026-05-08 02:22 | 27.85791 | 75.93830 | 20123 ft | 392 kts | 14° |
| 2026-05-08 02:22 | 27.88411 | 75.94717 | 19521 ft | 389 kts | 14° |
| 2026-05-08 02:22 | 27.91003 | 75.95595 | 18926 ft | 386 kts | 13° |
| 2026-05-08 02:22 | 27.93557 | 75.96459 | 18343 ft | 383 kts | 13° |
| 2026-05-08 02:23 | 27.96104 | 75.97321 | 17760 ft | 380 kts | 13° |
| 2026-05-08 02:23 | 27.98638 | 75.98179 | 17183 ft | 378 kts | 13° |
| 2026-05-08 02:23 | 28.01132 | 75.99023 | 16620 ft | 375 kts | 13° |
| 2026-05-08 02:23 | 28.03627 | 75.99868 | 16064 ft | 372 kts | 13° |
| 2026-05-08 02:24 | 28.06060 | 76.00693 | 15896 ft | 357 kts | 13° |
| 2026-05-08 02:24 | 28.08364 | 76.01477 | 15825 ft | 339 kts | 13° |
| 2026-05-08 02:24 | 28.10580 | 76.02229 | 15716 ft | 323 kts | 12° |
| 2026-05-08 02:24 | 28.12700 | 76.02948 | 15582 ft | 310 kts | 12° |
| 2026-05-08 02:25 | 28.14711 | 76.03630 | 15439 ft | 297 kts | 12° |
| 2026-05-08 02:25 | 28.16670 | 76.04295 | 15313 ft | 285 kts | 12° |
| 2026-05-08 02:25 | 28.18536 | 76.04927 | 15187 ft | 276 kts | 12° |
| 2026-05-08 02:25 | 28.20348 | 76.05542 | 15051 ft | 267 kts | 12° |
| 2026-05-08 02:26 | 28.22031 | 76.06398 | 14909 ft | 266 kts | 31° |
| 2026-05-08 02:26 | 28.23342 | 76.07970 | 14734 ft | 292 kts | 51° |
| 2026-05-08 02:26 | 28.24373 | 76.10004 | 14354 ft | 299 kts | 57° |
| 2026-05-08 02:26 | 28.25302 | 76.12097 | 13988 ft | 300 kts | 59° |
| 2026-05-08 02:27 | 28.26231 | 76.14214 | 13643 ft | 299 kts | 59° |
| 2026-05-08 02:27 | 28.27153 | 76.16303 | 13312 ft | 298 kts | 59° |
| 2026-05-08 02:27 | 28.28083 | 76.18405 | 12975 ft | 297 kts | 59° |
| 2026-05-08 02:27 | 28.29007 | 76.20493 | 12641 ft | 296 kts | 59° |
| 2026-05-08 02:28 | 28.29923 | 76.22564 | 12313 ft | 295 kts | 59° |
| 2026-05-08 02:28 | 28.30843 | 76.24644 | 11979 ft | 294 kts | 59° |
| 2026-05-08 02:28 | 28.31750 | 76.26692 | 11650 ft | 293 kts | 59° |
| 2026-05-08 02:28 | 28.32664 | 76.28760 | 11326 ft | 292 kts | 59° |
| 2026-05-08 02:29 | 28.33576 | 76.30826 | 10999 ft | 292 kts | 59° |
| 2026-05-08 02:29 | 28.34475 | 76.32861 | 10671 ft | 291 kts | 59° |
| 2026-05-08 02:29 | 28.35384 | 76.34920 | 10348 ft | 288 kts | 60° |
| 2026-05-08 02:29 | 28.36269 | 76.36929 | 10036 ft | 285 kts | 60° |
| 2026-05-08 02:30 | 28.37144 | 76.38914 | 9743 ft | 281 kts | 60° |
| 2026-05-08 02:30 | 28.38001 | 76.40862 | 9535 ft | 272 kts | 60° |
| 2026-05-08 02:30 | 28.38836 | 76.42758 | 9363 ft | 262 kts | 60° |
| 2026-05-08 02:30 | 28.39642 | 76.44589 | 9200 ft | 258 kts | 60° |
| 2026-05-08 02:31 | 28.40435 | 76.46389 | 9007 ft | 256 kts | 60° |
| 2026-05-08 02:31 | 28.41228 | 76.48190 | 8818 ft | 254 kts | 60° |
| 2026-05-08 02:31 | 28.42015 | 76.49982 | 8630 ft | 253 kts | 60° |
| 2026-05-08 02:31 | 28.42800 | 76.51767 | 8443 ft | 251 kts | 60° |
| 2026-05-08 02:32 | 28.43577 | 76.53534 | 8259 ft | 251 kts | 60° |
| 2026-05-08 02:32 | 28.44361 | 76.55320 | 8071 ft | 249 kts | 60° |
| 2026-05-08 02:32 | 28.45123 | 76.57059 | 7890 ft | 248 kts | 60° |
| 2026-05-08 02:32 | 28.45901 | 76.58830 | 7704 ft | 248 kts | 60° |
| 2026-05-08 02:33 | 28.46658 | 76.60559 | 7522 ft | 246 kts | 60° |
| 2026-05-08 02:33 | 28.47422 | 76.62300 | 7340 ft | 244 kts | 60° |
| 2026-05-08 02:33 | 28.48174 | 76.64017 | 7161 ft | 243 kts | 60° |
| 2026-05-08 02:33 | 28.48928 | 76.65739 | 6981 ft | 242 kts | 61° |
| 2026-05-08 02:34 | 28.49667 | 76.67430 | 6802 ft | 238 kts | 61° |
| 2026-05-08 02:34 | 28.50396 | 76.69097 | 6629 ft | 232 kts | 61° |
| 2026-05-08 02:34 | 28.51109 | 76.70727 | 6459 ft | 226 kts | 61° |
| 2026-05-08 02:34 | 28.51799 | 76.72297 | 6303 ft | 219 kts | 59° |
| 2026-05-08 02:35 | 28.52678 | 76.73676 | 6191 ft | 212 kts | 47° |
| 2026-05-08 02:35 | 28.53652 | 76.74922 | 6049 ft | 211 kts | 46° |
| 2026-05-08 02:35 | 28.54626 | 76.76152 | 5898 ft | 210 kts | 46° |
| 2026-05-08 02:35 | 28.55615 | 76.77406 | 5749 ft | 210 kts | 46° |
| 2026-05-08 02:36 | 28.56583 | 76.78638 | 5595 ft | 210 kts | 47° |
| 2026-05-08 02:36 | 28.57556 | 76.79877 | 5430 ft | 209 kts | 47° |
| 2026-05-08 02:36 | 28.58528 | 76.81114 | 5276 ft | 208 kts | 47° |
| 2026-05-08 02:36 | 28.59479 | 76.82326 | 5119 ft | 202 kts | 47° |
| 2026-05-08 02:37 | 28.60395 | 76.83491 | 4983 ft | 195 kts | 47° |
| 2026-05-08 02:37 | 28.61276 | 76.84635 | 4816 ft | 188 kts | 54° |
| 2026-05-08 02:37 | 28.61688 | 76.85977 | 4673 ft | 178 kts | 88° |
| 2026-05-08 02:37 | 28.61548 | 76.87381 | 4451 ft | 176 kts | 102° |
| 2026-05-08 02:38 | 28.61264 | 76.88719 | 4208 ft | 174 kts | 105° |
| 2026-05-08 02:38 | 28.60963 | 76.90050 | 3986 ft | 171 kts | 104° |
| 2026-05-08 02:38 | 28.60682 | 76.91341 | 3766 ft | 168 kts | 105° |
| 2026-05-08 02:38 | 28.60393 | 76.92621 | 3557 ft | 165 kts | 106° |
| 2026-05-08 02:39 | 28.60104 | 76.93875 | 3357 ft | 163 kts | 106° |
| 2026-05-08 02:39 | 28.59820 | 76.95108 | 3147 ft | 158 kts | 107° |
| 2026-05-08 02:39 | 28.59539 | 76.96323 | 2940 ft | 157 kts | 106° |
| 2026-05-08 02:39 | 28.59275 | 76.97472 | 2735 ft | 146 kts | 106° |
| 2026-05-08 02:40 | 28.59049 | 76.98455 | 2557 ft | 141 kts | 106° |
| 2026-05-08 02:40 | 28.58797 | 76.99542 | 2368 ft | 139 kts | 106° |
| 2026-05-08 02:40 | 28.58554 | 77.00596 | 2184 ft | 137 kts | 106° |
| 2026-05-08 02:40 | 28.58313 | 77.01640 | 2008 ft | 136 kts | 106° |
| 2026-05-08 02:41 | 28.58076 | 77.02665 | 1832 ft | 135 kts | 106° |
| 2026-05-08 02:41 | 28.57845 | 77.03699 | 1637 ft | 135 kts | 105° |
| 2026-05-08 02:41 | 28.57603 | 77.04746 | 1447 ft | 136 kts | 106° |
| 2026-05-08 02:41 | 28.57355 | 77.05769 | 1264 ft | 135 kts | 106° |
| 2026-05-08 02:42 | 28.57114 | 77.06792 | 1101 ft | 135 kts | 105° |
| 2026-05-08 02:42 | 28.56875 | 77.07823 | 920 ft | 135 kts | 104° |
| 2026-05-08 02:42 | 28.56642 | 77.08843 | 788 ft | 127 kts | 104° |
| 2026-05-08 02:42 | 28.56451 | 77.09670 | 787 ft | 86 kts | 104° |
| 2026-05-08 02:43 | 28.56338 | 77.10165 | 787 ft | 41 kts | 105° |
| 2026-05-08 02:43 | 28.56289 | 77.10339 | 787 ft | 16 kts | 118° |
| 2026-05-08 02:43 | 28.56228 | 77.10440 | 787 ft | 15 kts | 129° |